Terminal Aerodrome Forecast
Issued by NWS

Home | Current Version | Previous Version | Text Only | Print | Product List | Glossary On
Versions: 1 2 3 4 5 6 7 8 9 10 11 12 13
000
FTUS43 KDVN 222335
TAFCID
TAF
KCID 222335Z 2300/2324 VRB03KT P6SM SCT040
     FM230900 11005KT 6SM BR VCSH BKN070
     FM231100 12007KT 5SM BR BKN040 PROB30 2311/2315 4SM TSRA
      BKN050CB
     FM231500 14009KT P6SM BKN050
     FM232000 14009KT P6SM SCT050=

USA.gov is the U.S. government's official web portal to all federal, state and local government web resources and services.